Areia Branca, Brazil
Current Conditions -  °F | °C
As of 10:00 PM on Thursday 27 Nov 2014 (Local Time) from SBMS Reporting Station
Clear Clear  
Wind Chill: 81°   Ceiling: Unl
Heat Index: 84°   Visibility: 6mi
Dew Point: 70°   Wind: 6mph
Humidity: 70%   Direction: 70°ENE
Pressure: 29.91"   Gusts: NA
Location:  4.96°S, 37.14°W
Report Text: SBMS 280100Z 07005KT CAVOK 27/21 Q1013
Loading
Personal Weather Stations






























Interactive Weather Map New forecast layout! Learn more

10-Day Weather Forecast

Advertisements
Track Severe Weather on mobile